createdAt,value
2017-12-23T00:00:25.197Z,25.80
2017-12-23T00:02:53.611Z,23.50
2017-12-23T00:05:21.303Z,21.30
2017-12-23T00:07:49.743Z,15.70
2017-12-23T00:10:18.144Z,23.90
2017-12-23T00:12:45.830Z,17.40
2017-12-23T00:15:13.472Z,19.83
2017-12-23T00:17:41.086Z,20.83
2017-12-23T00:20:08.792Z,16.73
2017-12-23T00:22:36.435Z,16.10
2017-12-23T00:25:04.053Z,17.83
2017-12-23T00:27:31.752Z,15.43
2017-12-23T00:29:59.377Z,12.50
2017-12-23T00:32:27.837Z,16.07
2017-12-23T00:34:55.505Z,23.27
2017-12-23T00:37:23.135Z,17.63
2017-12-23T00:39:50.769Z,17.60
2017-12-23T00:42:18.525Z,14.70
2017-12-23T00:44:46.931Z,17.00
2017-12-23T00:47:14.620Z,16.10
2017-12-23T00:49:43.945Z,14.37
2017-12-23T00:52:11.594Z,13.40
2017-12-23T00:54:39.276Z,15.43
2017-12-23T00:57:07.728Z,12.67
2017-12-23T00:59:35.362Z,19.50
2017-12-23T01:02:03.009Z,12.80
2017-12-23T01:04:30.678Z,11.13
2017-12-23T01:06:58.321Z,13.27
2017-12-23T01:09:26.770Z,16.77
2017-12-23T01:11:54.442Z,12.63
2017-12-23T01:14:22.135Z,16.07
2017-12-23T01:16:49.754Z,16.43
2017-12-23T01:19:17.447Z,12.30
2017-12-23T01:21:45.826Z,15.53
2017-12-23T01:24:14.198Z,13.57
2017-12-23T01:26:41.855Z,10.87
2017-12-23T01:29:09.464Z,9.20
2017-12-23T01:31:37.861Z,15.20
2017-12-23T01:34:05.513Z,16.13
2017-12-23T01:36:33.141Z,12.90
2017-12-23T01:39:01.530Z,13.50
2017-12-23T01:41:29.172Z,9.27
2017-12-23T01:43:56.778Z,12.93
2017-12-23T01:46:24.405Z,11.30
2017-12-23T01:48:52.827Z,12.30
2017-12-23T01:51:20.449Z,21.70
2017-12-23T01:53:48.942Z,13.03
2017-12-23T01:56:16.601Z,8.73
2017-12-23T01:58:44.234Z,10.73
2017-12-23T02:01:12.650Z,14.70
2017-12-23T02:03:40.300Z,14.13
2017-12-23T02:06:08.700Z,11.33
2017-12-23T02:08:36.339Z,13.73
2017-12-23T02:11:04.765Z,11.50
2017-12-23T02:13:32.381Z,14.70
2017-12-23T02:16:00.776Z,14.23
2017-12-23T02:18:28.442Z,13.43
2017-12-23T02:20:56.868Z,14.90
2017-12-23T02:23:24.511Z,10.63
2017-12-23T02:25:53.025Z,13.43
2017-12-23T02:28:20.658Z,16.40
2017-12-23T02:30:48.319Z,10.87
2017-12-23T02:33:16.025Z,13.33
2017-12-23T02:35:44.473Z,13.23
2017-12-23T02:38:12.094Z,12.93
2017-12-23T02:40:39.799Z,12.33
2017-12-23T02:43:07.462Z,17.37
2017-12-23T02:45:35.337Z,12.00
2017-12-23T02:48:02.996Z,11.27
2017-12-23T02:50:31.533Z,14.53
2017-12-23T02:52:59.150Z,16.60
2017-12-23T02:55:27.572Z,14.87
2017-12-23T02:57:55.198Z,13.00
2017-12-23T03:00:23.579Z,11.90
2017-12-23T03:02:51.222Z,18.03
2017-12-23T03:05:19.637Z,16.43
2017-12-23T03:07:47.246Z,15.73
2017-12-23T03:10:14.986Z,14.77
2017-12-23T03:12:42.621Z,12.20
2017-12-23T03:15:10.254Z,18.03
2017-12-23T03:17:38.718Z,20.83
2017-12-23T03:20:07.104Z,21.07
2017-12-23T03:22:34.718Z,16.67
2017-12-23T03:25:02.385Z,10.20
2017-12-23T03:27:29.999Z,15.93
2017-12-23T03:29:58.381Z,16.43
2017-12-23T03:32:26.059Z,17.27
2017-12-23T03:34:53.748Z,13.83
2017-12-23T03:37:21.440Z,15.60
2017-12-23T03:39:49.133Z,22.00
2017-12-23T03:42:16.736Z,13.33
2017-12-23T03:44:44.336Z,21.07
2017-12-23T03:47:12.819Z,16.90
2017-12-23T03:49:41.208Z,24.43
2017-12-23T03:52:08.886Z,16.47
2017-12-23T03:54:36.555Z,18.37
2017-12-23T03:57:04.186Z,13.73
2017-12-23T03:59:31.805Z,15.53
2017-12-23T04:01:59.466Z,17.60
2017-12-23T04:04:27.123Z,13.77
2017-12-23T04:06:54.801Z,17.20
2017-12-23T04:09:22.532Z,13.30
2017-12-23T04:11:50.154Z,22.77
2017-12-23T04:14:17.779Z,14.47
2017-12-23T04:16:45.446Z,19.30
2017-12-23T04:19:13.057Z,12.67
2017-12-23T04:21:40.679Z,14.90
2017-12-23T04:24:09.124Z,13.93
2017-12-23T04:26:36.740Z,13.30
2017-12-23T04:29:04.370Z,13.93
2017-12-23T04:31:32.034Z,17.40
2017-12-23T04:33:59.706Z,20.17
2017-12-23T04:36:27.337Z,16.43
2017-12-23T04:38:54.993Z,18.70
2017-12-23T04:41:22.648Z,14.53
2017-12-23T04:43:50.262Z,14.33
2017-12-23T04:46:17.921Z,11.03
2017-12-23T04:48:45.843Z,14.90
2017-12-23T04:51:13.468Z,12.20
2017-12-23T04:53:41.141Z,18.90
2017-12-23T04:56:08.756Z,16.30
2017-12-23T04:58:37.152Z,12.23
2017-12-23T05:01:04.806Z,21.37
2017-12-23T05:03:32.460Z,18.37
2017-12-23T05:06:00.096Z,17.30
2017-12-23T05:08:27.738Z,20.13
2017-12-23T05:10:55.382Z,14.13
2017-12-23T05:13:23.018Z,19.60
2017-12-23T05:15:50.696Z,15.23
2017-12-23T05:18:18.321Z,18.27
2017-12-23T05:20:46.713Z,18.73
2017-12-23T05:23:14.401Z,14.30
2017-12-23T05:25:42.051Z,18.57
2017-12-23T05:28:09.712Z,15.00
2017-12-23T05:30:37.389Z,16.33
2017-12-23T05:33:05.035Z,14.57
2017-12-23T05:35:32.672Z,14.10
2017-12-23T05:38:00.329Z,18.33
2017-12-23T05:40:27.992Z,15.00
2017-12-23T05:42:55.682Z,16.20
2017-12-23T05:45:24.135Z,18.70
2017-12-23T05:47:52.047Z,16.20
2017-12-23T05:50:19.872Z,18.37
2017-12-23T05:52:47.559Z,18.93
2017-12-23T05:55:15.174Z,22.07
2017-12-23T05:57:42.820Z,27.00
2017-12-23T06:00:10.497Z,17.00
2017-12-23T06:02:38.887Z,24.67
2017-12-23T06:05:06.523Z,18.80
2017-12-23T06:07:35.083Z,17.10
2017-12-23T06:10:02.760Z,23.47
2017-12-23T06:12:30.377Z,19.60
2017-12-23T06:14:58.025Z,20.83
2017-12-23T06:17:25.696Z,18.80
2017-12-23T06:19:53.317Z,19.23
2017-12-23T06:22:21.826Z,19.43
2017-12-23T06:24:49.425Z,21.90
2017-12-23T06:27:17.074Z,14.70
2017-12-23T06:29:44.799Z,21.40
2017-12-23T06:32:12.427Z,16.70
2017-12-23T06:34:40.749Z,17.80
2017-12-23T06:37:08.448Z,20.80
2017-12-23T06:39:36.090Z,17.03
2017-12-23T06:42:03.829Z,16.27
2017-12-23T06:44:31.515Z,16.97
2017-12-23T06:46:59.154Z,18.63
2017-12-23T06:49:26.846Z,14.60
2017-12-23T06:51:54.513Z,18.40
2017-12-23T06:54:22.178Z,12.63
2017-12-23T06:56:49.805Z,17.97
2017-12-23T06:59:17.457Z,15.17
2017-12-23T07:01:45.102Z,19.07
2017-12-23T07:04:13.501Z,18.70
2017-12-23T07:06:41.189Z,19.73
2017-12-23T07:09:08.801Z,17.07
2017-12-23T07:11:37.199Z,15.70
2017-12-23T07:14:04.864Z,15.70
2017-12-23T07:16:32.517Z,17.63
2017-12-23T07:19:00.213Z,17.33
2017-12-23T07:21:27.969Z,16.17
2017-12-23T07:23:55.592Z,13.43
2017-12-23T07:26:23.216Z,17.73
2017-12-23T07:28:50.929Z,14.30
2017-12-23T07:31:18.556Z,15.03
2017-12-23T07:33:46.166Z,18.93
2017-12-23T07:36:13.871Z,19.10
2017-12-23T07:38:41.523Z,15.47
2017-12-23T07:41:09.236Z,20.73
2017-12-23T07:43:37.015Z,20.93
2017-12-23T07:46:04.664Z,26.30
2017-12-23T07:48:32.384Z,20.70
2017-12-23T07:51:00.074Z,22.03
2017-12-23T07:53:28.585Z,23.87
2017-12-23T07:55:56.209Z,21.43
2017-12-23T07:58:24.684Z,24.20
2017-12-23T08:00:53.100Z,17.90
2017-12-23T08:03:20.784Z,25.10
2017-12-23T08:05:48.540Z,19.30
2017-12-23T08:08:16.263Z,17.93
2017-12-23T08:10:44.690Z,20.07
2017-12-23T08:13:12.388Z,21.93
2017-12-23T08:15:41.620Z,22.47
2017-12-23T08:18:09.244Z,20.50
2017-12-23T08:20:36.909Z,23.93
2017-12-23T08:23:04.579Z,21.43
2017-12-23T08:25:33.015Z,21.60
2017-12-23T08:28:00.695Z,21.60
2017-12-23T08:30:28.320Z,15.33
2017-12-23T08:32:56.057Z,25.40
2017-12-23T08:35:24.490Z,22.83
2017-12-23T08:37:52.152Z,26.37
2017-12-23T08:40:19.918Z,29.60
2017-12-23T08:42:47.679Z,23.30
2017-12-23T08:45:15.301Z,15.07
2017-12-23T08:47:42.930Z,24.10
2017-12-23T08:50:10.729Z,19.03
2017-12-23T08:52:38.393Z,24.77
2017-12-23T08:55:06.269Z,27.90
2017-12-23T08:57:33.940Z,23.13
2017-12-23T09:00:01.681Z,17.40
2017-12-23T09:02:29.346Z,25.17
2017-12-23T09:04:57.020Z,26.47
2017-12-23T09:07:24.704Z,23.67
2017-12-23T09:09:52.342Z,29.17
2017-12-23T09:12:20.057Z,20.37
2017-12-23T09:14:47.667Z,26.83
2017-12-23T09:17:15.297Z,28.70
2017-12-23T09:19:44.053Z,27.30
2017-12-23T09:22:11.695Z,24.87
2017-12-23T09:24:39.311Z,26.47
2017-12-23T09:27:07.093Z,23.23
2017-12-23T09:29:34.744Z,25.43
2017-12-23T09:32:02.418Z,26.93
2017-12-23T09:34:30.207Z,25.53
2017-12-23T09:36:57.840Z,28.17
2017-12-23T09:39:25.502Z,28.83
2017-12-23T09:41:53.229Z,26.13
2017-12-23T09:44:20.866Z,25.20
2017-12-23T09:46:48.620Z,25.63
2017-12-23T09:49:16.309Z,30.13
2017-12-23T09:51:43.947Z,31.13
2017-12-23T09:54:11.585Z,29.00
2017-12-23T09:56:39.755Z,24.90
2017-12-23T09:59:07.488Z,29.80
2017-12-23T10:01:35.133Z,32.47
2017-12-23T10:04:02.815Z,28.73
2017-12-23T10:06:30.483Z,29.33
2017-12-23T10:08:58.140Z,30.67
2017-12-23T10:11:26.643Z,36.70
2017-12-23T10:13:54.307Z,31.47
2017-12-23T10:16:21.918Z,33.67
2017-12-23T10:18:49.881Z,28.83
2017-12-23T10:21:17.609Z,34.73
2017-12-23T10:23:45.284Z,26.67
2017-12-23T10:26:13.081Z,30.67
2017-12-23T10:28:40.728Z,31.87
2017-12-23T10:31:08.366Z,26.73
2017-12-23T10:33:36.069Z,25.33
2017-12-23T10:36:07.366Z,20.97
2017-12-23T10:38:35.095Z,23.13
2017-12-23T10:41:02.715Z,26.53
2017-12-23T10:43:30.337Z,30.23
2017-12-23T10:45:57.998Z,25.27
2017-12-23T10:48:25.622Z,26.73
2017-12-23T10:50:54.038Z,24.63
2017-12-23T10:53:21.720Z,28.00
2017-12-23T10:55:49.439Z,29.07
2017-12-23T10:58:17.222Z,29.20
2017-12-23T11:00:44.962Z,25.50
2017-12-23T11:03:13.355Z,24.53
2017-12-23T11:05:40.986Z,26.67
2017-12-23T11:08:08.639Z,28.00
2017-12-23T11:10:36.272Z,28.33
2017-12-23T11:13:03.889Z,23.90
2017-12-23T11:15:32.338Z,23.73
2017-12-23T11:18:00.743Z,32.90
2017-12-23T11:20:29.137Z,20.47
2017-12-23T11:22:56.791Z,26.37
2017-12-23T11:25:24.455Z,27.00
2017-12-23T11:27:52.111Z,31.40
2017-12-23T11:30:19.761Z,22.63
2017-12-23T11:32:48.209Z,24.47
2017-12-23T11:35:15.850Z,31.83
2017-12-23T11:37:43.537Z,22.00
2017-12-23T11:40:11.160Z,26.47
2017-12-23T11:42:38.801Z,26.73
2017-12-23T11:45:06.483Z,23.93
2017-12-23T11:47:34.134Z,24.67
2017-12-23T11:50:07.814Z,24.30
2017-12-23T11:52:36.271Z,28.70
2017-12-23T11:55:04.701Z,24.90
2017-12-23T11:57:32.896Z,23.53
2017-12-23T12:00:00.548Z,26.33
2017-12-23T12:02:28.258Z,27.03
2017-12-23T12:04:56.717Z,26.00
2017-12-23T12:07:24.354Z,25.17
2017-12-23T12:09:51.979Z,27.87
2017-12-23T12:12:19.651Z,27.67
2017-12-23T12:14:47.297Z,27.63
2017-12-23T12:17:15.721Z,28.03
2017-12-23T12:19:43.435Z,29.87
2017-12-23T12:22:11.813Z,28.53
2017-12-23T12:24:40.217Z,25.70
2017-12-23T12:27:07.893Z,26.07
2017-12-23T12:29:35.526Z,23.60
2017-12-23T12:32:03.182Z,28.07
2017-12-23T12:34:30.839Z,24.63
2017-12-23T12:36:59.252Z,27.77
2017-12-23T12:39:26.886Z,26.93
2017-12-23T12:41:54.690Z,30.07
2017-12-23T12:44:23.197Z,21.73
2017-12-23T12:46:50.827Z,24.97
2017-12-23T12:49:18.551Z,22.67
2017-12-23T12:51:46.994Z,25.50
2017-12-23T12:54:14.639Z,25.77
2017-12-23T12:56:42.354Z,25.13
2017-12-23T12:59:10.742Z,25.73
2017-12-23T13:01:38.566Z,27.80
2017-12-23T13:04:06.257Z,25.20
2017-12-23T13:06:34.652Z,26.27
2017-12-23T13:09:02.280Z,23.50
2017-12-23T13:11:29.945Z,22.60
2017-12-23T13:13:58.348Z,23.80
2017-12-23T13:16:26.001Z,23.20
2017-12-23T13:18:54.431Z,22.77
2017-12-23T13:21:22.044Z,24.63
2017-12-23T13:23:49.682Z,19.20
2017-12-23T13:26:17.349Z,23.00
2017-12-23T13:28:44.978Z,20.70
2017-12-23T13:31:12.597Z,21.40
2017-12-23T13:33:40.285Z,22.73
2017-12-23T13:36:08.168Z,24.13
2017-12-23T13:38:35.840Z,22.03
2017-12-23T13:41:03.528Z,20.40
2017-12-23T13:43:33.957Z,21.13
2017-12-23T13:46:01.911Z,21.87
2017-12-23T13:48:30.822Z,24.00
2017-12-23T13:50:58.466Z,23.80
2017-12-23T13:53:26.863Z,20.07
2017-12-23T13:55:54.541Z,21.03
2017-12-23T13:58:22.165Z,20.90
2017-12-23T14:00:49.789Z,21.33
2017-12-23T14:03:17.447Z,22.83
2017-12-23T14:05:45.072Z,21.57
2017-12-23T14:08:12.698Z,21.63
2017-12-23T14:10:40.533Z,20.13
2017-12-23T14:13:08.186Z,21.00
2017-12-23T14:15:36.583Z,20.23
2017-12-23T14:18:04.263Z,26.10
2017-12-23T14:20:31.874Z,19.83
2017-12-23T14:23:00.260Z,20.63
2017-12-23T14:25:27.944Z,17.70
2017-12-23T14:27:55.597Z,15.73
2017-12-23T14:30:23.238Z,19.80
2017-12-23T14:32:50.914Z,22.97
2017-12-23T14:35:18.558Z,21.00
2017-12-23T14:37:46.181Z,20.10
2017-12-23T14:40:13.860Z,30.37
2017-12-23T14:42:41.516Z,20.27
2017-12-23T14:45:09.892Z,20.50
2017-12-23T14:47:38.353Z,17.57
2017-12-23T14:50:05.967Z,21.00
2017-12-23T14:52:33.619Z,26.60
2017-12-23T14:55:01.319Z,22.83
2017-12-23T14:57:28.969Z,24.20
2017-12-23T14:59:56.597Z,21.90
2017-12-23T15:02:24.314Z,21.30
2017-12-23T15:04:55.983Z,25.13
2017-12-23T15:07:23.620Z,21.77
2017-12-23T15:09:51.338Z,20.77
2017-12-23T15:12:18.972Z,23.67
2017-12-23T15:14:47.344Z,21.20
2017-12-23T15:17:15.157Z,22.67
2017-12-23T15:19:42.798Z,21.23
2017-12-23T15:22:11.301Z,20.80
2017-12-23T15:24:39.022Z,18.53
2017-12-23T15:27:07.458Z,21.03
2017-12-23T15:29:35.110Z,20.40
2017-12-23T15:32:03.734Z,16.93
2017-12-23T15:34:31.364Z,17.07
2017-12-23T15:36:58.986Z,22.27
2017-12-23T15:39:26.791Z,19.80
2017-12-23T15:41:54.392Z,19.57
2017-12-23T15:44:22.058Z,14.97
2017-12-23T15:46:50.629Z,19.60
2017-12-23T15:49:18.253Z,18.60
2017-12-23T15:51:45.882Z,17.10
2017-12-23T15:54:13.672Z,17.50
2017-12-23T15:56:41.277Z,19.93
2017-12-23T15:59:09.796Z,18.93
2017-12-23T16:01:37.503Z,22.90
2017-12-23T16:04:05.202Z,24.70
2017-12-23T16:06:33.600Z,17.93
2017-12-23T16:09:01.333Z,19.57
2017-12-23T16:11:29.001Z,18.20
2017-12-23T16:13:57.374Z,23.80
2017-12-23T16:16:25.987Z,17.20
2017-12-23T16:18:53.610Z,19.50
2017-12-23T16:21:21.998Z,18.87
2017-12-23T16:23:49.702Z,16.13
2017-12-23T16:26:17.336Z,16.03
2017-12-23T16:28:44.968Z,21.67
2017-12-23T16:31:12.783Z,19.43
2017-12-23T16:33:40.414Z,20.40
2017-12-23T16:36:08.042Z,18.53
2017-12-23T16:38:35.740Z,15.97
2017-12-23T16:41:04.168Z,20.13
2017-12-23T16:43:31.771Z,16.00
2017-12-23T16:46:00.361Z,21.90
2017-12-23T16:48:27.999Z,17.10
2017-12-23T16:50:55.654Z,18.60
2017-12-23T16:53:23.319Z,17.90
2017-12-23T16:55:50.960Z,15.83
2017-12-23T16:58:18.579Z,17.50
2017-12-23T17:00:46.311Z,17.60
2017-12-23T17:03:13.936Z,22.60
2017-12-23T17:05:42.765Z,19.70
2017-12-23T17:08:10.442Z,22.30
2017-12-23T17:10:38.827Z,19.83
2017-12-23T17:13:06.447Z,29.00
2017-12-23T17:15:34.136Z,19.23
2017-12-23T17:18:01.767Z,19.37
2017-12-23T17:20:29.386Z,18.17
2017-12-23T17:22:57.065Z,18.80
2017-12-23T17:25:24.677Z,17.00
2017-12-23T17:27:52.396Z,19.13
2017-12-23T17:30:31.859Z,16.10
2017-12-23T17:32:59.519Z,15.50
2017-12-23T17:35:27.129Z,19.23
2017-12-23T17:37:54.809Z,15.70
2017-12-23T17:40:22.420Z,18.63
2017-12-23T17:42:50.801Z,14.87
2017-12-23T17:45:18.542Z,18.60
2017-12-23T17:47:46.493Z,18.03
2017-12-23T17:50:14.121Z,17.93
2017-12-23T17:52:41.802Z,18.50
2017-12-23T17:55:09.470Z,16.00
2017-12-23T17:57:37.089Z,14.73
2017-12-23T18:00:05.514Z,15.57
2017-12-23T18:02:33.147Z,18.87
2017-12-23T18:05:01.523Z,13.87
2017-12-23T18:07:29.200Z,15.37
2017-12-23T18:09:56.861Z,14.60
2017-12-23T18:12:24.455Z,15.70
2017-12-23T18:14:52.117Z,14.80
2017-12-23T18:17:19.725Z,20.63
2017-12-23T18:19:47.334Z,14.67
2017-12-23T18:22:15.217Z,14.03
2017-12-23T18:24:43.613Z,18.77
2017-12-23T18:27:11.236Z,18.40
2017-12-23T18:29:39.058Z,16.00
2017-12-23T18:32:06.666Z,13.97
2017-12-23T18:34:34.298Z,15.27
2017-12-23T18:37:01.975Z,16.57
2017-12-23T18:39:29.615Z,24.50
2017-12-23T18:41:57.232Z,19.60
2017-12-23T18:44:25.716Z,17.53
2017-12-23T18:46:54.111Z,19.27
2017-12-23T18:49:21.710Z,19.13
2017-12-23T18:51:49.431Z,16.40
2017-12-23T18:54:17.111Z,18.70
2017-12-23T18:56:44.734Z,15.90
2017-12-23T18:59:13.215Z,18.10
2017-12-23T19:01:41.600Z,19.60
2017-12-23T19:04:09.274Z,17.00
2017-12-23T19:06:37.081Z,18.50
2017-12-23T19:09:04.700Z,20.30
2017-12-23T19:11:32.323Z,21.00
2017-12-23T19:14:00.120Z,17.83
2017-12-23T19:16:40.213Z,18.47
2017-12-23T19:19:07.965Z,18.03
2017-12-23T19:21:35.574Z,18.03
2017-12-23T19:24:03.195Z,22.70
2017-12-23T19:26:30.946Z,21.93
2017-12-23T19:28:58.561Z,19.63
2017-12-23T19:31:26.986Z,19.13
2017-12-23T19:33:54.938Z,20.10
2017-12-23T19:36:22.566Z,18.53
2017-12-23T19:38:50.937Z,19.80
2017-12-23T19:41:18.674Z,16.90
2017-12-23T19:43:46.314Z,23.80
2017-12-23T19:46:13.989Z,19.70
2017-12-23T19:48:41.702Z,17.80
2017-12-23T19:51:10.086Z,22.17
2017-12-23T19:53:38.465Z,20.27
2017-12-23T19:56:07.013Z,18.40
2017-12-23T19:58:34.712Z,19.07
2017-12-23T20:01:02.498Z,22.00
2017-12-23T20:03:30.326Z,19.10
2017-12-23T20:05:58.698Z,20.17
2017-12-23T20:08:26.340Z,21.43
2017-12-23T20:10:54.051Z,21.70
2017-12-23T20:13:21.675Z,24.60
2017-12-23T20:15:50.087Z,19.47
2017-12-23T20:18:18.567Z,22.07
2017-12-23T20:20:46.188Z,18.60
2017-12-23T20:23:13.829Z,19.30
2017-12-23T20:25:41.639Z,21.60
2017-12-23T20:28:10.025Z,18.50
2017-12-23T20:30:38.482Z,20.90
2017-12-23T20:33:06.262Z,17.90
2017-12-23T20:35:33.908Z,20.43
2017-12-23T20:38:01.576Z,17.77
2017-12-23T20:40:30.075Z,16.23
2017-12-23T20:42:58.471Z,19.03
2017-12-23T20:45:26.127Z,16.20
2017-12-23T20:47:53.830Z,17.37
2017-12-23T20:50:21.739Z,17.90
2017-12-23T20:52:50.114Z,18.27
2017-12-23T20:55:18.590Z,19.67
2017-12-23T20:57:46.230Z,18.10
2017-12-23T21:00:13.886Z,18.10
2017-12-23T21:02:41.606Z,24.27
2017-12-23T21:05:09.233Z,22.30
2017-12-23T21:07:37.693Z,19.50
2017-12-23T21:10:06.552Z,22.17
2017-12-23T21:12:34.168Z,23.40
2017-12-23T21:15:02.543Z,17.83
2017-12-23T21:17:31.020Z,23.63
2017-12-23T21:19:58.683Z,24.73
2017-12-23T21:22:27.097Z,16.90
2017-12-23T21:24:55.534Z,18.40
2017-12-23T21:27:23.187Z,19.20
2017-12-23T21:29:50.805Z,14.50
2017-12-23T21:32:18.495Z,16.33
2017-12-23T21:34:46.187Z,19.40
2017-12-23T21:37:14.579Z,15.20
2017-12-23T21:39:43.159Z,16.47
2017-12-23T21:42:11.536Z,18.53
2017-12-23T21:44:39.177Z,18.57
2017-12-23T21:47:07.040Z,26.73
2017-12-23T21:49:34.696Z,18.77
2017-12-23T21:52:02.338Z,16.07
2017-12-23T21:54:30.115Z,17.33
2017-12-23T21:56:57.752Z,13.37
2017-12-23T21:59:25.360Z,13.93
2017-12-23T22:01:53.057Z,17.00
2017-12-23T22:04:20.674Z,14.50
2017-12-23T22:06:48.403Z,13.93
2017-12-23T22:09:16.178Z,14.37
2017-12-23T22:11:43.855Z,14.47
2017-12-23T22:14:11.513Z,14.93
2017-12-23T22:16:39.405Z,17.40
2017-12-23T22:19:07.783Z,13.30
2017-12-23T22:21:36.264Z,13.90
2017-12-23T22:24:04.035Z,15.43
2017-12-23T22:26:32.423Z,14.53
2017-12-23T22:29:00.052Z,17.40
2017-12-23T22:31:27.752Z,13.07
2017-12-23T22:33:55.452Z,13.33
2017-12-23T22:36:23.068Z,13.60
2017-12-23T22:38:50.779Z,13.00
2017-12-23T22:41:18.396Z,14.40
2017-12-23T22:43:46.017Z,12.80
2017-12-23T22:46:14.156Z,13.40
2017-12-23T22:48:41.777Z,14.67
2017-12-23T22:51:10.158Z,13.93
2017-12-23T22:53:37.876Z,13.80
2017-12-23T22:56:05.563Z,17.17
2017-12-23T22:58:33.961Z,12.60
2017-12-23T23:01:02.535Z,15.10
2017-12-23T23:03:30.914Z,13.87
2017-12-23T23:05:59.290Z,12.97
2017-12-23T23:08:27.746Z,14.43
2017-12-23T23:10:55.388Z,12.80
2017-12-23T23:13:23.019Z,13.87
2017-12-23T23:15:50.718Z,13.97
2017-12-23T23:18:18.339Z,15.17
2017-12-23T23:20:45.976Z,14.73
2017-12-23T23:23:13.761Z,13.27
2017-12-23T23:25:41.404Z,15.47
2017-12-23T23:28:09.077Z,18.70
2017-12-23T23:30:36.829Z,15.00
2017-12-23T23:33:05.255Z,12.77
2017-12-23T23:35:32.868Z,13.10
2017-12-23T23:38:00.549Z,14.50
2017-12-23T23:40:28.188Z,14.90
2017-12-23T23:42:56.573Z,14.93
2017-12-23T23:45:24.268Z,14.40
2017-12-23T23:47:52.407Z,12.20
2017-12-23T23:50:20.785Z,14.10
2017-12-23T23:52:49.241Z,12.13
2017-12-23T23:55:16.960Z,14.10
2017-12-23T23:57:44.598Z,12.97
